sensor_id;sensor_type;location;lat;lon;timestamp;pressure;altitude;pressure_sealevel;temperature;humidity
61900;BME280;47853;55.890;37.664;2022-10-16T00:02:16;100496.75;;;6.12;61.65
61900;BME280;47853;55.890;37.664;2022-10-16T00:04:42;100490.16;;;6.06;61.52
61900;BME280;47853;55.890;37.664;2022-10-16T00:07:07;100490.09;;;6.19;61.34
61900;BME280;47853;55.890;37.664;2022-10-16T00:09:33;100503.34;;;6.31;60.96
61900;BME280;47853;55.890;37.664;2022-10-16T00:11:58;100506.59;;;5.97;61.99
61900;BME280;47853;55.890;37.664;2022-10-16T00:14:23;100496.75;;;6.12;61.84
61900;BME280;47853;55.890;37.664;2022-10-16T00:16:49;100511.88;;;5.97;61.90
61900;BME280;47853;55.890;37.664;2022-10-16T00:19:14;100515.34;;;6.11;61.80
61900;BME280;47853;55.890;37.664;2022-10-16T00:21:39;100510.16;;;6.09;61.85
61900;BME280;47853;55.890;37.664;2022-10-16T00:24:07;100515.13;;;6.14;61.91
61900;BME280;47853;55.890;37.664;2022-10-16T00:26:35;100507.66;;;6.07;62.14
61900;BME280;47853;55.890;37.664;2022-10-16T00:29:00;100519.31;;;6.16;61.68
61900;BME280;47853;55.890;37.664;2022-10-16T00:31:26;100505.72;;;5.72;62.45
61900;BME280;47853;55.890;37.664;2022-10-16T00:33:52;100523.13;;;5.62;63.25
61900;BME280;47853;55.890;37.664;2022-10-16T00:36:20;100516.78;;;5.51;63.70
61900;BME280;47853;55.890;37.664;2022-10-16T00:38:45;100506.38;;;5.37;64.08
61900;BME280;47853;55.890;37.664;2022-10-16T00:41:14;100519.84;;;5.45;64.24
61900;BME280;47853;55.890;37.664;2022-10-16T00:43:45;100526.81;;;5.46;64.51
61900;BME280;47853;55.890;37.664;2022-10-16T00:46:21;100515.66;;;5.43;64.70
61900;BME280;47853;55.890;37.664;2022-10-16T00:48:57;100511.56;;;5.39;64.48
61900;BME280;47853;55.890;37.664;2022-10-16T00:51:34;100530.31;;;5.34;64.73
61900;BME280;47853;55.890;37.664;2022-10-16T00:54:03;100530.53;;;5.44;64.57
61900;BME280;47853;55.890;37.664;2022-10-16T00:56:29;100522.91;;;5.39;64.64
61900;BME280;47853;55.890;37.664;2022-10-16T00:58:54;100532.81;;;5.48;64.58
61900;BME280;47853;55.890;37.664;2022-10-16T01:01:20;100527.66;;;5.60;64.28
61900;BME280;47853;55.890;37.664;2022-10-16T01:03:45;100515.22;;;5.75;63.79
61900;BME280;47853;55.890;37.664;2022-10-16T01:11:33;100520.56;;;5.73;63.71
61900;BME280;47853;55.890;37.664;2022-10-16T01:14:06;100545.53;;;5.80;63.32
61900;BME280;47853;55.890;37.664;2022-10-16T01:16:51;100538.22;;;5.60;63.89
61900;BME280;47853;55.890;37.664;2022-10-16T01:22:11;100538.50;;;5.29;65.04
61900;BME280;47853;55.890;37.664;2022-10-16T01:24:44;100539.47;;;5.41;65.11
61900;BME280;47853;55.890;37.664;2022-10-16T01:27:18;100546.00;;;5.61;64.35
61900;BME280;47853;55.890;37.664;2022-10-16T01:30:05;100542.63;;;5.59;63.84
61900;BME280;47853;55.890;37.664;2022-10-16T01:32:41;100545.25;;;5.59;64.17
61900;BME280;47853;55.890;37.664;2022-10-16T01:35:16;100540.94;;;5.58;64.12
61900;BME280;47853;55.890;37.664;2022-10-16T01:37:48;100542.53;;;5.61;63.99
61900;BME280;47853;55.890;37.664;2022-10-16T01:40:17;100544.94;;;5.38;64.22
61900;BME280;47853;55.890;37.664;2022-10-16T01:42:49;100549.69;;;5.33;64.76
61900;BME280;47853;55.890;37.664;2022-10-16T01:45:18;100532.06;;;5.59;64.44
61900;BME280;47853;55.890;37.664;2022-10-16T01:47:45;100547.31;;;5.93;63.36
61900;BME280;47853;55.890;37.664;2022-10-16T01:50:12;100531.84;;;5.75;63.35
61900;BME280;47853;55.890;37.664;2022-10-16T01:52:43;100551.56;;;5.70;63.78
61900;BME280;47853;55.890;37.664;2022-10-16T01:55:12;100547.25;;;5.69;63.38
61900;BME280;47853;55.890;37.664;2022-10-16T01:57:43;100541.66;;;5.60;64.01
61900;BME280;47853;55.890;37.664;2022-10-16T02:00:12;100555.28;;;5.67;63.55
61900;BME280;47853;55.890;37.664;2022-10-16T02:02:41;100542.09;;;5.54;63.54
61900;BME280;47853;55.890;37.664;2022-10-16T02:05:15;100542.09;;;5.54;63.79
61900;BME280;47853;55.890;37.664;2022-10-16T02:07:41;100539.38;;;5.56;63.79
61900;BME280;47853;55.890;37.664;2022-10-16T02:10:10;100551.81;;;5.54;63.86
61900;BME280;47853;55.890;37.664;2022-10-16T02:12:38;100560.00;;;5.36;64.45
61900;BME280;47853;55.890;37.664;2022-10-16T02:15:06;100541.47;;;5.12;65.19
61900;BME280;47853;55.890;37.664;2022-10-16T02:17:32;100554.72;;;5.23;64.62
61900;BME280;47853;55.890;37.664;2022-10-16T02:19:58;100558.50;;;5.06;65.15
61900;BME280;47853;55.890;37.664;2022-10-16T02:22:28;100553.13;;;4.94;65.56
61900;BME280;47853;55.890;37.664;2022-10-16T02:29:54;100552.97;;;5.23;64.67
61900;BME280;47853;55.890;37.664;2022-10-16T02:32:23;100559.56;;;5.03;65.25
61900;BME280;47853;55.890;37.664;2022-10-16T02:34:50;100559.44;;;5.05;65.56
61900;BME280;47853;55.890;37.664;2022-10-16T02:37:17;100558.09;;;4.99;65.54
61900;BME280;47853;55.890;37.664;2022-10-16T02:39:43;100566.09;;;5.11;65.20
61900;BME280;47853;55.890;37.664;2022-10-16T02:42:15;100561.88;;;5.08;65.12
61900;BME280;47853;55.890;37.664;2022-10-16T02:44:42;100572.13;;;5.13;65.16
61900;BME280;47853;55.890;37.664;2022-10-16T02:47:08;100560.00;;;5.10;65.06
61900;BME280;47853;55.890;37.664;2022-10-16T02:49:33;100570.31;;;5.26;64.77
61900;BME280;47853;55.890;37.664;2022-10-16T02:51:58;100560.94;;;4.96;65.48
61900;BME280;47853;55.890;37.664;2022-10-16T02:54:23;100571.97;;;4.88;65.96
61900;BME280;47853;55.890;37.664;2022-10-16T02:56:49;100565.69;;;5.17;65.22
61900;BME280;47853;55.890;37.664;2022-10-16T02:59:14;100566.28;;;4.94;65.19
61900;BME280;47853;55.890;37.664;2022-10-16T03:01:40;100567.50;;;5.16;64.92
61900;BME280;47853;55.890;37.664;2022-10-16T03:04:05;100556.38;;;4.85;65.50
61900;BME280;47853;55.890;37.664;2022-10-16T03:06:30;100558.69;;;4.77;65.68
61900;BME280;47853;55.890;37.664;2022-10-16T03:08:56;100570.94;;;5.04;65.58
61900;BME280;47853;55.890;37.664;2022-10-16T03:11:21;100549.06;;;4.63;65.86
61900;BME280;47853;55.890;37.664;2022-10-16T03:13:46;100578.59;;;4.81;65.97
61900;BME280;47853;55.890;37.664;2022-10-16T03:16:14;100565.03;;;4.60;66.70
61900;BME280;47853;55.890;37.664;2022-10-16T03:18:40;100562.47;;;4.73;66.42
61900;BME280;47853;55.890;37.664;2022-10-16T03:21:05;100582.19;;;4.93;65.93
61900;BME280;47853;55.890;37.664;2022-10-16T03:23:30;100577.53;;;4.84;65.95
61900;BME280;47853;55.890;37.664;2022-10-16T03:25:56;100566.50;;;4.91;65.58
61900;BME280;47853;55.890;37.664;2022-10-16T03:28:21;100578.03;;;4.76;66.29
61900;BME280;47853;55.890;37.664;2022-10-16T03:30:46;100568.38;;;4.89;66.08
61900;BME280;47853;55.890;37.664;2022-10-16T03:33:12;100588.50;;;4.90;65.70
61900;BME280;47853;55.890;37.664;2022-10-16T03:35:37;100571.34;;;4.98;65.41
61900;BME280;47853;55.890;37.664;2022-10-16T03:38:02;100584.22;;;5.02;65.36
61900;BME280;47853;55.890;37.664;2022-10-16T03:40:28;100587.88;;;4.87;65.81
61900;BME280;47853;55.890;37.664;2022-10-16T03:42:53;100582.69;;;4.85;65.84
61900;BME280;47853;55.890;37.664;2022-10-16T03:45:18;100592.28;;;4.86;65.79
61900;BME280;47853;55.890;37.664;2022-10-16T03:47:44;100578.81;;;4.50;66.46
61900;BME280;47853;55.890;37.664;2022-10-16T03:50:09;100586.19;;;4.58;66.44
61900;BME280;47853;55.890;37.664;2022-10-16T03:52:34;100581.16;;;4.68;66.57
61900;BME280;47853;55.890;37.664;2022-10-16T03:54:59;100593.19;;;4.72;66.33
61900;BME280;47853;55.890;37.664;2022-10-16T03:57:25;100572.06;;;4.46;66.33
61900;BME280;47853;55.890;37.664;2022-10-16T03:59:50;100591.25;;;4.61;66.45
61900;BME280;47853;55.890;37.664;2022-10-16T04:02:16;100589.56;;;4.60;66.70
61900;BME280;47853;55.890;37.664;2022-10-16T04:04:41;100596.63;;;4.60;66.18
61900;BME280;47853;55.890;37.664;2022-10-16T04:07:09;100586.22;;;4.71;66.35
61900;BME280;47853;55.890;37.664;2022-10-16T04:09:34;100581.75;;;4.31;66.78
61900;BME280;47853;55.890;37.664;2022-10-16T04:12:00;100593.09;;;4.46;67.25
61900;BME280;47853;55.890;37.664;2022-10-16T04:14:25;100582.19;;;4.53;66.89
61900;BME280;47853;55.890;37.664;2022-10-16T04:16:50;100582.50;;;4.33;67.31
61900;BME280;47853;55.890;37.664;2022-10-16T04:19:16;100593.78;;;4.63;67.04
61900;BME280;47853;55.890;37.664;2022-10-16T04:21:41;100581.22;;;4.54;67.11
61900;BME280;47853;55.890;37.664;2022-10-16T04:24:06;100578.38;;;4.84;66.29
61900;BME280;47853;55.890;37.664;2022-10-16T04:26:32;100591.22;;;4.48;67.05
61900;BME280;47853;55.890;37.664;2022-10-16T04:28:57;100582.38;;;4.77;66.61
61900;BME280;47853;55.890;37.664;2022-10-16T04:31:23;100594.13;;;4.44;67.02
61900;BME280;47853;55.890;37.664;2022-10-16T04:33:48;100590.88;;;4.68;66.88
61900;BME280;47853;55.890;37.664;2022-10-16T04:36:13;100591.16;;;4.35;67.22
61900;BME280;47853;55.890;37.664;2022-10-16T04:38:39;100594.53;;;4.65;67.07
61900;BME280;47853;55.890;37.664;2022-10-16T04:41:05;100587.75;;;4.88;66.21
61900;BME280;47853;55.890;37.664;2022-10-16T04:43:31;100610.19;;;5.34;64.86
61900;BME280;47853;55.890;37.664;2022-10-16T04:45:57;100594.66;;;4.76;65.79
61900;BME280;47853;55.890;37.664;2022-10-16T04:48:22;100600.66;;;4.78;66.24
61900;BME280;47853;55.890;37.664;2022-10-16T04:50:47;100598.69;;;4.82;66.19
61900;BME280;47853;55.890;37.664;2022-10-16T04:53:13;100595.16;;;4.96;65.93
61900;BME280;47853;55.890;37.664;2022-10-16T04:55:38;100600.31;;;4.98;65.83
61900;BME280;47853;55.890;37.664;2022-10-16T04:58:04;100610.25;;;4.79;66.03
61900;BME280;47853;55.890;37.664;2022-10-16T05:00:30;100606.78;;;4.79;66.55
61900;BME280;47853;55.890;37.664;2022-10-16T05:02:55;100607.81;;;4.76;66.42
61900;BME280;47853;55.890;37.664;2022-10-16T05:05:21;100608.97;;;4.72;66.91
61900;BME280;47853;55.890;37.664;2022-10-16T05:07:47;100609.84;;;4.73;67.06
61900;BME280;47853;55.890;37.664;2022-10-16T05:10:12;100604.16;;;4.79;67.20
61900;BME280;47853;55.890;37.664;2022-10-16T05:12:37;100608.56;;;4.78;66.41
61900;BME280;47853;55.890;37.664;2022-10-16T05:15:03;100614.22;;;5.00;66.39
61900;BME280;47853;55.890;37.664;2022-10-16T05:17:29;100608.66;;;5.04;65.70
61900;BME280;47853;55.890;37.664;2022-10-16T05:19:54;100623.22;;;5.23;65.39
61900;BME280;47853;55.890;37.664;2022-10-16T05:22:20;100619.81;;;5.08;65.86
61900;BME280;47853;55.890;37.664;2022-10-16T05:24:45;100628.94;;;5.30;64.99
61900;BME280;47853;55.890;37.664;2022-10-16T05:27:12;100617.75;;;5.39;65.29
61900;BME280;47853;55.890;37.664;2022-10-16T05:29:38;100631.03;;;5.50;64.81
61900;BME280;47853;55.890;37.664;2022-10-16T05:32:03;100628.19;;;6.18;63.33
61900;BME280;47853;55.890;37.664;2022-10-16T05:34:28;100631.66;;;6.69;61.50
61900;BME280;47853;55.890;37.664;2022-10-16T05:36:54;100629.50;;;6.99;59.72
61900;BME280;47853;55.890;37.664;2022-10-16T05:39:19;100610.03;;;7.24;58.63
61900;BME280;47853;55.890;37.664;2022-10-16T05:41:52;100600.56;;;7.33;57.42
61900;BME280;47853;55.890;37.664;2022-10-16T05:44:23;100626.38;;;7.40;57.53
61900;BME280;47853;55.890;37.664;2022-10-16T05:46:48;100613.31;;;6.79;57.65
61900;BME280;47853;55.890;37.664;2022-10-16T05:49:14;100619.03;;;6.97;59.38
61900;BME280;47853;55.890;37.664;2022-10-16T05:51:39;100624.78;;;6.66;60.05
61900;BME280;47853;55.890;37.664;2022-10-16T05:54:05;100617.53;;;6.57;60.01
61900;BME280;47853;55.890;37.664;2022-10-16T05:56:30;100641.63;;;7.01;59.66
61900;BME280;47853;55.890;37.664;2022-10-16T05:58:55;100623.16;;;6.77;59.33
61900;BME280;47853;55.890;37.664;2022-10-16T06:01:21;100644.81;;;7.53;58.57
61900;BME280;47853;55.890;37.664;2022-10-16T06:03:46;100628.59;;;8.26;55.92
61900;BME280;47853;55.890;37.664;2022-10-16T06:06:17;100636.56;;;8.49;54.86
61900;BME280;47853;55.890;37.664;2022-10-16T06:08:44;100642.41;;;8.41;54.09
61900;BME280;47853;55.890;37.664;2022-10-16T06:11:11;100636.19;;;8.31;54.50
61900;BME280;47853;55.890;37.664;2022-10-16T06:13:37;100643.66;;;7.80;56.27
61900;BME280;47853;55.890;37.664;2022-10-16T06:16:03;100635.91;;;8.68;54.71
61900;BME280;47853;55.890;37.664;2022-10-16T06:18:29;100624.94;;;9.48;52.53
61900;BME280;47853;55.890;37.664;2022-10-16T06:20:56;100626.13;;;9.13;52.76
61900;BME280;47853;55.890;37.664;2022-10-16T06:23:21;100634.41;;;9.93;51.27
61900;BME280;47853;55.890;37.664;2022-10-16T06:25:47;100647.78;;;10.54;49.66
61900;BME280;47853;55.890;37.664;2022-10-16T06:28:14;100634.84;;;9.46;50.45
61900;BME280;47853;55.890;37.664;2022-10-16T06:30:39;100628.72;;;9.98;51.45
61900;BME280;47853;55.890;37.664;2022-10-16T06:33:05;100643.13;;;10.15;49.97
61900;BME280;47853;55.890;37.664;2022-10-16T06:35:33;100642.09;;;9.96;50.13
61900;BME280;47853;55.890;37.664;2022-10-16T06:38:01;100645.72;;;10.97;49.12
61900;BME280;47853;55.890;37.664;2022-10-16T06:40:26;100653.25;;;11.51;46.96
61900;BME280;47853;55.890;37.664;2022-10-16T06:42:54;100650.47;;;11.23;47.80
61900;BME280;47853;55.890;37.664;2022-10-16T06:45:20;100649.56;;;11.71;45.93
61900;BME280;47853;55.890;37.664;2022-10-16T06:47:45;100647.81;;;9.70;50.48
61900;BME280;47853;55.890;37.664;2022-10-16T06:50:10;100644.31;;;11.42;47.35
61900;BME280;47853;55.890;37.664;2022-10-16T06:52:36;100654.97;;;12.27;45.09
61900;BME280;47853;55.890;37.664;2022-10-16T06:55:01;100632.09;;;11.97;45.51
61900;BME280;47853;55.890;37.664;2022-10-16T06:57:29;100656.75;;;11.51;45.23
61900;BME280;47853;55.890;37.664;2022-10-16T06:59:54;100651.81;;;11.66;46.28
61900;BME280;47853;55.890;37.664;2022-10-16T07:02:20;100634.34;;;12.57;44.68
61900;BME280;47853;55.890;37.664;2022-10-16T07:04:45;100647.97;;;12.54;43.95
61900;BME280;47853;55.890;37.664;2022-10-16T07:07:10;100645.88;;;12.94;42.43
61900;BME280;47853;55.890;37.664;2022-10-16T07:10:00;100650.59;;;13.00;42.91
61900;BME280;47853;55.890;37.664;2022-10-16T07:12:28;100638.38;;;12.15;43.98
61900;BME280;47853;55.890;37.664;2022-10-16T07:14:54;100658.38;;;12.75;43.81
61900;BME280;47853;55.890;37.664;2022-10-16T07:17:19;100667.13;;;13.40;41.88
61900;BME280;47853;55.890;37.664;2022-10-16T07:19:47;100653.25;;;13.18;41.65
61900;BME280;47853;55.890;37.664;2022-10-16T07:22:13;100657.13;;;13.60;41.16
61900;BME280;47853;55.890;37.664;2022-10-16T07:24:38;100669.88;;;14.01;40.42
61900;BME280;47853;55.890;37.664;2022-10-16T07:27:03;100651.94;;;13.59;40.99
61900;BME280;47853;55.890;37.664;2022-10-16T07:29:29;100661.72;;;14.03;40.80
61900;BME280;47853;55.890;37.664;2022-10-16T07:31:57;100654.13;;;14.25;39.95
61900;BME280;47853;55.890;37.664;2022-10-16T07:34:22;100649.31;;;12.86;42.56
61900;BME280;47853;55.890;37.664;2022-10-16T07:36:49;100657.69;;;13.10;41.94
61900;BME280;47853;55.890;37.664;2022-10-16T07:39:14;100662.16;;;13.63;41.07
61900;BME280;47853;55.890;37.664;2022-10-16T07:41:40;100649.47;;;13.03;41.68
61900;BME280;47853;55.890;37.664;2022-10-16T07:44:05;100652.28;;;12.65;42.20
61900;BME280;47853;55.890;37.664;2022-10-16T07:46:30;100665.09;;;12.52;42.63
61900;BME280;47853;55.890;37.664;2022-10-16T07:48:56;100665.97;;;12.14;44.41
61900;BME280;47853;55.890;37.664;2022-10-16T07:51:23;100650.94;;;12.51;43.45
61900;BME280;47853;55.890;37.664;2022-10-16T07:53:49;100654.09;;;13.01;41.48
61900;BME280;47853;55.890;37.664;2022-10-16T07:56:15;100664.19;;;12.43;43.13
61900;BME280;47853;55.890;37.664;2022-10-16T07:58:41;100666.59;;;12.64;42.97
61900;BME280;47853;55.890;37.664;2022-10-16T08:01:09;100661.25;;;13.37;41.49
61900;BME280;47853;55.890;37.664;2022-10-16T08:03:35;100681.53;;;13.11;41.65
61900;BME280;47853;55.890;37.664;2022-10-16T08:06:01;100665.38;;;12.48;42.86
61900;BME280;47853;55.890;37.664;2022-10-16T08:08:27;100684.75;;;12.23;43.78
61900;BME280;47853;55.890;37.664;2022-10-16T08:10:52;100688.06;;;11.77;43.49
61900;BME280;47853;55.890;37.664;2022-10-16T08:13:18;100677.47;;;11.28;46.02
61900;BME280;47853;55.890;37.664;2022-10-16T08:15:44;100672.09;;;11.77;44.84
61900;BME280;47853;55.890;37.664;2022-10-16T08:18:11;100669.97;;;11.90;44.44
61900;BME280;47853;55.890;37.664;2022-10-16T08:20:37;100659.97;;;11.45;45.07
61900;BME280;47853;55.890;37.664;2022-10-16T08:23:03;100644.75;;;12.97;43.05
61900;BME280;47853;55.890;37.664;2022-10-16T08:25:28;100657.16;;;13.69;41.41
61900;BME280;47853;55.890;37.664;2022-10-16T08:27:54;100653.84;;;14.01;39.11
61900;BME280;47853;55.890;37.664;2022-10-16T08:30:21;100652.81;;;13.94;40.07
61900;BME280;47853;55.890;37.664;2022-10-16T08:32:46;100656.13;;;13.88;40.22
61900;BME280;47853;55.890;37.664;2022-10-16T08:35:13;100664.00;;;14.32;39.33
61900;BME280;47853;55.890;37.664;2022-10-16T08:37:39;100657.69;;;15.43;37.57
61900;BME280;47853;55.890;37.664;2022-10-16T08:40:16;100647.53;;;13.31;40.20
61900;BME280;47853;55.890;37.664;2022-10-16T08:50:56;100668.47;;;11.78;43.81
61900;BME280;47853;55.890;37.664;2022-10-16T08:53:38;100656.97;;;11.68;45.30
61900;BME280;47853;55.890;37.664;2022-10-16T08:56:05;100654.28;;;12.25;44.13
61900;BME280;47853;55.890;37.664;2022-10-16T08:58:31;100647.31;;;13.69;41.13
61900;BME280;47853;55.890;37.664;2022-10-16T09:01:02;100662.34;;;13.97;40.22
61900;BME280;47853;55.890;37.664;2022-10-16T09:17:01;100646.94;;;13.90;40.65
61900;BME280;47853;55.890;37.664;2022-10-16T09:19:36;100662.03;;;14.86;38.08
61900;BME280;47853;55.890;37.664;2022-10-16T09:22:14;100659.16;;;14.36;39.54
61900;BME280;47853;55.890;37.664;2022-10-16T09:24:40;100642.66;;;15.00;37.85
61900;BME280;47853;55.890;37.664;2022-10-16T09:27:10;100650.78;;;14.31;39.03
61900;BME280;47853;55.890;37.664;2022-10-16T09:29:36;100658.63;;;14.24;38.65
61900;BME280;47853;55.890;37.664;2022-10-16T09:32:18;100656.06;;;13.35;40.46
61900;BME280;47853;55.890;37.664;2022-10-16T09:34:50;100654.94;;;12.37;42.29
61900;BME280;47853;55.890;37.664;2022-10-16T09:37:19;100642.75;;;12.35;41.88
61900;BME280;47853;55.890;37.664;2022-10-16T09:39:53;100660.25;;;12.65;41.70
61900;BME280;47853;55.890;37.664;2022-10-16T09:42:20;100642.22;;;12.95;41.16
61900;BME280;47853;55.890;37.664;2022-10-16T09:44:48;100641.72;;;14.15;39.42
61900;BME280;47853;55.890;37.664;2022-10-16T09:47:17;100636.63;;;14.90;37.61
61900;BME280;47853;55.890;37.664;2022-10-16T09:50:05;100645.75;;;14.19;38.50
61900;BME280;47853;55.890;37.664;2022-10-16T09:52:40;100642.69;;;12.72;41.04
61900;BME280;47853;55.890;37.664;2022-10-16T09:55:29;100645.56;;;12.79;42.12
61900;BME280;47853;55.890;37.664;2022-10-16T09:57:55;100641.28;;;13.23;40.68
61900;BME280;47853;55.890;37.664;2022-10-16T10:00:22;100631.19;;;13.53;40.23
61900;BME280;47853;55.890;37.664;2022-10-16T10:02:48;100617.38;;;12.58;41.49
61900;BME280;47853;55.890;37.664;2022-10-16T10:05:20;100618.88;;;12.15;42.61
61900;BME280;47853;55.890;37.664;2022-10-16T10:07:46;100632.66;;;12.38;42.38
61900;BME280;47853;55.890;37.664;2022-10-16T10:10:28;100644.78;;;12.23;42.34
61900;BME280;47853;55.890;37.664;2022-10-16T10:12:55;100652.69;;;11.47;43.53
61900;BME280;47853;55.890;37.664;2022-10-16T10:15:24;100644.56;;;11.49;43.95
61900;BME280;47853;55.890;37.664;2022-10-16T10:17:53;100633.22;;;12.04;42.82
61900;BME280;47853;55.890;37.664;2022-10-16T10:20:35;100651.16;;;12.58;41.25
61900;BME280;47853;55.890;37.664;2022-10-16T10:23:15;100642.47;;;12.38;42.03
61900;BME280;47853;55.890;37.664;2022-10-16T10:26:07;100607.34;;;12.70;41.45
61900;BME280;47853;55.890;37.664;2022-10-16T10:28:48;100621.50;;;12.89;40.76
61900;BME280;47853;55.890;37.664;2022-10-16T10:31:49;100627.31;;;12.84;40.63
61900;BME280;47853;55.890;37.664;2022-10-16T10:40:02;100647.09;;;13.18;40.35
61900;BME280;47853;55.890;37.664;2022-10-16T10:42:36;100616.47;;;12.86;41.47
61900;BME280;47853;55.890;37.664;2022-10-16T10:45:26;100626.09;;;13.94;39.12
61900;BME280;47853;55.890;37.664;2022-10-16T10:51:05;100634.09;;;12.51;41.29
61900;BME280;47853;55.890;37.664;2022-10-16T10:53:45;100610.16;;;12.87;41.16
61900;BME280;47853;55.890;37.664;2022-10-16T11:08:10;100594.09;;;13.41;39.97
61900;BME280;47853;55.890;37.664;2022-10-16T11:11:08;100605.06;;;13.91;39.11
61900;BME280;47853;55.890;37.664;2022-10-16T11:14:04;100600.28;;;14.03;39.43
61900;BME280;47853;55.890;37.664;2022-10-16T11:16:53;100606.75;;;14.43;38.38
61900;BME280;47853;55.890;37.664;2022-10-16T11:23:18;100527.81;;;12.11;41.73
61900;BME280;47853;55.890;37.664;2022-10-16T11:25:48;100576.38;;;13.14;40.53
61900;BME280;47853;55.890;37.664;2022-10-16T11:28:33;100588.13;;;12.85;40.51
61900;BME280;47853;55.890;37.664;2022-10-16T11:37:15;100552.66;;;12.48;41.51
61900;BME280;47853;55.890;37.664;2022-10-16T11:39:59;100556.78;;;12.14;42.37
61900;BME280;47853;55.890;37.664;2022-10-16T11:42:50;100606.34;;;12.25;43.47
61900;BME280;47853;55.890;37.664;2022-10-16T11:45:46;100530.09;;;12.24;42.04
61900;BME280;47853;55.890;37.664;2022-10-16T11:48:40;100615.41;;;12.60;42.34
61900;BME280;47853;55.890;37.664;2022-10-16T11:51:24;100527.38;;;12.34;42.51
61900;BME280;47853;55.890;37.664;2022-10-16T11:56:57;100554.16;;;12.32;42.57
61900;BME280;47853;55.890;37.664;2022-10-16T12:10:50;100609.09;;;12.61;42.78
61900;BME280;47853;55.890;37.664;2022-10-16T12:13:37;100555.84;;;12.33;42.56
61900;BME280;47853;55.890;37.664;2022-10-16T12:18:40;100527.72;;;12.03;43.23
61900;BME280;47853;55.890;37.664;2022-10-16T12:21:09;100561.56;;;12.57;42.91
61900;BME280;47853;55.890;37.664;2022-10-16T12:24:01;100545.72;;;12.91;41.75
61900;BME280;47853;55.890;37.664;2022-10-16T12:26:39;100596.41;;;12.45;42.33
61900;BME280;47853;55.890;37.664;2022-10-16T12:29:44;100552.25;;;11.97;43.61
61900;BME280;47853;55.890;37.664;2022-10-16T12:32:27;100567.34;;;12.34;43.38
61900;BME280;47853;55.890;37.664;2022-10-16T12:34:53;100520.50;;;12.13;43.21
61900;BME280;47853;55.890;37.664;2022-10-16T12:37:48;100565.25;;;12.10;43.71
61900;BME280;47853;55.890;37.664;2022-10-16T12:40:32;100503.09;;;12.37;43.07
61900;BME280;47853;55.890;37.664;2022-10-16T12:43:22;100540.84;;;12.87;42.38
61900;BME280;47853;55.890;37.664;2022-10-16T12:46:02;100568.44;;;13.22;41.88
61900;BME280;47853;55.890;37.664;2022-10-16T12:48:30;100513.81;;;12.82;41.85
61900;BME280;47853;55.890;37.664;2022-10-16T12:51:23;100474.28;;;13.03;41.08
61900;BME280;47853;55.890;37.664;2022-10-16T12:54:15;100518.19;;;13.09;41.18
61900;BME280;47853;55.890;37.664;2022-10-16T13:03:14;100571.19;;;13.39;41.46
61900;BME280;47853;55.890;37.664;2022-10-16T13:09:28;100563.78;;;12.80;42.42
61900;BME280;47853;55.890;37.664;2022-10-16T13:20:49;100462.31;;;12.00;42.86
61900;BME280;47853;55.890;37.664;2022-10-16T13:32:06;100576.06;;;11.98;43.99
61900;BME280;47853;55.890;37.664;2022-10-16T13:34:41;100550.97;;;12.29;43.43
61900;BME280;47853;55.890;37.664;2022-10-16T13:37:34;100471.88;;;12.11;43.06
61900;BME280;47853;55.890;37.664;2022-10-16T13:49:01;100468.00;;;11.22;44.88
61900;BME280;47853;55.890;37.664;2022-10-16T13:51:36;100498.59;;;11.36;44.79
61900;BME280;47853;55.890;37.664;2022-10-16T13:54:12;100471.84;;;10.99;45.37
61900;BME280;47853;55.890;37.664;2022-10-16T13:56:55;100553.09;;;11.59;45.69
61900;BME280;47853;55.890;37.664;2022-10-16T13:59:36;100490.44;;;11.09;45.48
61900;BME280;47853;55.890;37.664;2022-10-16T14:02:18;100466.16;;;10.74;46.10
61900;BME280;47853;55.890;37.664;2022-10-16T14:04:49;100550.53;;;11.30;45.87
61900;BME280;47853;55.890;37.664;2022-10-16T14:07:22;100549.44;;;11.23;45.96
61900;BME280;47853;55.890;37.664;2022-10-16T14:09:50;100507.81;;;10.54;46.95
61900;BME280;47853;55.890;37.664;2022-10-16T14:12:36;100557.34;;;10.85;46.99
61900;BME280;47853;55.890;37.664;2022-10-16T14:15:22;100565.56;;;10.82;47.41
61900;BME280;47853;55.890;37.664;2022-10-16T14:17:51;100531.31;;;10.79;47.14
61900;BME280;47853;55.890;37.664;2022-10-16T14:20:24;100555.06;;;11.00;47.14
61900;BME280;47853;55.890;37.664;2022-10-16T14:23:01;100558.97;;;11.06;47.05
61900;BME280;47853;55.890;37.664;2022-10-16T14:25:31;100542.63;;;10.81;47.12
61900;BME280;47853;55.890;37.664;2022-10-16T14:28:25;100500.16;;;10.61;47.45
61900;BME280;47853;55.890;37.664;2022-10-16T14:33:24;100498.34;;;10.52;47.29
61900;BME280;47853;55.890;37.664;2022-10-16T14:36:05;100533.69;;;10.72;47.40
61900;BME280;47853;55.890;37.664;2022-10-16T14:38:36;100536.06;;;10.46;47.92
61900;BME280;47853;55.890;37.664;2022-10-16T14:41:08;100565.31;;;10.75;48.04
61900;BME280;47853;55.890;37.664;2022-10-16T14:43:49;100476.63;;;10.27;48.00
61900;BME280;47853;55.890;37.664;2022-10-16T14:46:21;100574.97;;;10.86;47.62
61900;BME280;47853;55.890;37.664;2022-10-16T14:48:50;100532.44;;;10.47;48.18
61900;BME280;47853;55.890;37.664;2022-10-16T14:51:19;100525.03;;;10.70;47.80
61900;BME280;47853;55.890;37.664;2022-10-16T14:53:45;100485.00;;;10.32;47.85
61900;BME280;47853;55.890;37.664;2022-10-16T14:56:22;100533.41;;;10.55;48.03
61900;BME280;47853;55.890;37.664;2022-10-16T14:58:50;100505.69;;;10.38;48.29
61900;BME280;47853;55.890;37.664;2022-10-16T15:01:19;100501.22;;;10.09;48.98
61900;BME280;47853;55.890;37.664;2022-10-16T15:03:48;100545.25;;;10.32;48.89